sensor_id;sensor_type;location;lat;lon;timestamp;pressure;altitude;pressure_sealevel;temperature;humidity
56052;BME280;41919;42.648;23.384;2022-07-10T00:00:32;94485.25;;;18.14;74.07
56052;BME280;41919;42.648;23.384;2022-07-10T00:02:57;94448.44;;;17.80;74.32
56052;BME280;41919;42.648;23.384;2022-07-10T00:05:24;94482.78;;;18.02;74.38
56052;BME280;41919;42.648;23.384;2022-07-10T00:07:50;94488.84;;;18.03;74.74
56052;BME280;41919;42.648;23.384;2022-07-10T00:10:17;94486.50;;;18.07;74.27
56052;BME280;41919;42.648;23.384;2022-07-10T00:12:42;94454.59;;;17.86;74.60
56052;BME280;41919;42.648;23.384;2022-07-10T00:15:08;94485.16;;;18.04;74.41
56052;BME280;41919;42.648;23.384;2022-07-10T00:17:34;94479.47;;;17.90;74.85
56052;BME280;41919;42.648;23.384;2022-07-10T00:20:02;94488.97;;;17.86;75.27
56052;BME280;41919;42.648;23.384;2022-07-10T00:22:28;94471.38;;;17.75;75.60
56052;BME280;41919;42.648;23.384;2022-07-10T00:24:53;94482.00;;;17.80;76.15
56052;BME280;41919;42.648;23.384;2022-07-10T00:27:19;94472.94;;;17.71;75.60
56052;BME280;41919;42.648;23.384;2022-07-10T00:29:45;94409.53;;;17.43;75.52
56052;BME280;41919;42.648;23.384;2022-07-10T00:32:10;94464.63;;;17.84;75.15
56052;BME280;41919;42.648;23.384;2022-07-10T00:34:36;94466.03;;;17.70;75.83
56052;BME280;41919;42.648;23.384;2022-07-10T00:37:03;94424.13;;;17.51;75.64
56052;BME280;41919;42.648;23.384;2022-07-10T00:39:29;94468.66;;;17.92;75.21
56052;BME280;41919;42.648;23.384;2022-07-10T00:41:55;94411.72;;;17.52;75.01
56052;BME280;41919;42.648;23.384;2022-07-10T00:44:20;94403.50;;;17.48;75.23
56052;BME280;41919;42.648;23.384;2022-07-10T00:46:46;94404.09;;;17.55;75.10
56052;BME280;41919;42.648;23.384;2022-07-10T00:49:11;94458.94;;;17.97;74.99
56052;BME280;41919;42.648;23.384;2022-07-10T00:51:37;94413.47;;;17.68;74.55
56052;BME280;41919;42.648;23.384;2022-07-10T00:54:02;94456.75;;;17.89;74.80
56052;BME280;41919;42.648;23.384;2022-07-10T00:56:28;94388.94;;;17.46;75.06
56052;BME280;41919;42.648;23.384;2022-07-10T00:58:54;94446.72;;;17.91;74.63
56052;BME280;41919;42.648;23.384;2022-07-10T01:01:20;94458.75;;;17.82;75.30
56052;BME280;41919;42.648;23.384;2022-07-10T01:03:48;94437.56;;;17.77;75.27
56052;BME280;41919;42.648;23.384;2022-07-10T01:06:14;94380.78;;;17.47;75.01
56052;BME280;41919;42.648;23.384;2022-07-10T01:08:40;94447.56;;;17.97;75.20
56052;BME280;41919;42.648;23.384;2022-07-10T01:11:07;94456.34;;;18.02;74.42
56052;BME280;41919;42.648;23.384;2022-07-10T01:13:33;94437.66;;;17.87;74.88
56052;BME280;41919;42.648;23.384;2022-07-10T01:15:59;94433.38;;;17.81;75.09
56052;BME280;41919;42.648;23.384;2022-07-10T01:18:25;94449.38;;;17.96;74.62
56052;BME280;41919;42.648;23.384;2022-07-10T01:20:55;94433.88;;;17.78;75.29
56052;BME280;41919;42.648;23.384;2022-07-10T01:23:21;94441.84;;;17.83;74.90
56052;BME280;41919;42.648;23.384;2022-07-10T01:25:48;94416.88;;;17.69;74.81
56052;BME280;41919;42.648;23.384;2022-07-10T01:28:16;94390.81;;;17.50;74.77
56052;BME280;41919;42.648;23.384;2022-07-10T01:30:41;94439.34;;;17.93;74.54
56052;BME280;41919;42.648;23.384;2022-07-10T01:33:07;94439.78;;;17.85;74.87
56052;BME280;41919;42.648;23.384;2022-07-10T01:35:32;94404.16;;;17.66;74.53
56052;BME280;41919;42.648;23.384;2022-07-10T01:37:58;94398.16;;;17.70;74.52
56052;BME280;41919;42.648;23.384;2022-07-10T01:40:23;94359.88;;;17.46;74.56
56052;BME280;41919;42.648;23.384;2022-07-10T01:42:49;94419.59;;;17.74;74.90
56052;BME280;41919;42.648;23.384;2022-07-10T01:45:16;94398.56;;;17.57;75.45
56052;BME280;41919;42.648;23.384;2022-07-10T01:47:42;94420.44;;;17.52;76.07
56052;BME280;41919;42.648;23.384;2022-07-10T01:50:09;94372.16;;;17.30;76.03
56052;BME280;41919;42.648;23.384;2022-07-10T01:52:35;94416.34;;;17.67;75.61
56052;BME280;41919;42.648;23.384;2022-07-10T01:55:01;94380.34;;;17.28;75.75
56052;BME280;41919;42.648;23.384;2022-07-10T01:57:27;94351.13;;;17.13;75.93
56052;BME280;41919;42.648;23.384;2022-07-10T01:59:52;94381.81;;;17.19;76.71
56052;BME280;41919;42.648;23.384;2022-07-10T02:02:17;94315.63;;;16.76;76.55
56052;BME280;41919;42.648;23.384;2022-07-10T02:04:43;94362.81;;;16.95;76.65
56052;BME280;41919;42.648;23.384;2022-07-10T02:07:14;94412.19;;;17.49;75.99
56052;BME280;41919;42.648;23.384;2022-07-10T02:09:40;94364.63;;;17.16;75.77
56052;BME280;41919;42.648;23.384;2022-07-10T02:12:07;94402.00;;;17.57;75.77
56052;BME280;41919;42.648;23.384;2022-07-10T02:14:33;94411.78;;;17.57;75.52
56052;BME280;41919;42.648;23.384;2022-07-10T02:16:58;94413.69;;;17.67;75.38
56052;BME280;41919;42.648;23.384;2022-07-10T02:19:24;94406.78;;;17.60;75.19
56052;BME280;41919;42.648;23.384;2022-07-10T02:21:49;94386.94;;;17.31;75.67
56052;BME280;41919;42.648;23.384;2022-07-10T02:24:15;94399.16;;;17.37;75.67
56052;BME280;41919;42.648;23.384;2022-07-10T02:26:40;94404.94;;;17.34;76.06
56052;BME280;41919;42.648;23.384;2022-07-10T02:29:06;94402.41;;;17.44;75.68
56052;BME280;41919;42.648;23.384;2022-07-10T02:31:31;94401.47;;;17.28;75.92
56052;BME280;41919;42.648;23.384;2022-07-10T02:34:00;94396.41;;;17.27;76.17
56052;BME280;41919;42.648;23.384;2022-07-10T02:36:25;94330.56;;;16.88;76.06
56052;BME280;41919;42.648;23.384;2022-07-10T02:38:51;94351.53;;;16.99;75.95
56052;BME280;41919;42.648;23.384;2022-07-10T02:41:16;94399.78;;;17.22;75.94
56052;BME280;41919;42.648;23.384;2022-07-10T02:43:42;94401.78;;;17.37;76.29
56052;BME280;41919;42.648;23.384;2022-07-10T02:46:07;94336.25;;;17.01;75.61
56052;BME280;41919;42.648;23.384;2022-07-10T02:48:32;94407.69;;;17.44;75.38
56052;BME280;41919;42.648;23.384;2022-07-10T02:50:58;94416.84;;;17.63;75.08
56052;BME280;41919;42.648;23.384;2022-07-10T02:53:23;94391.78;;;17.39;75.12
56052;BME280;41919;42.648;23.384;2022-07-10T02:55:49;94385.09;;;17.31;74.95
56052;BME280;41919;42.648;23.384;2022-07-10T02:58:14;94424.22;;;17.61;75.12
56052;BME280;41919;42.648;23.384;2022-07-10T03:00:41;94420.25;;;17.59;74.83
56052;BME280;41919;42.648;23.384;2022-07-10T03:03:07;94365.72;;;17.20;75.51
56052;BME280;41919;42.648;23.384;2022-07-10T03:05:33;94415.97;;;17.53;75.65
56052;BME280;41919;42.648;23.384;2022-07-10T03:07:58;94423.03;;;17.47;75.54
56052;BME280;41919;42.648;23.384;2022-07-10T03:10:24;94417.84;;;17.57;75.46
56052;BME280;41919;42.648;23.384;2022-07-10T03:12:50;94434.31;;;17.64;74.74
56052;BME280;41919;42.648;23.384;2022-07-10T03:15:15;94430.50;;;17.55;74.48
56052;BME280;41919;42.648;23.384;2022-07-10T03:17:41;94393.63;;;17.38;74.84
56052;BME280;41919;42.648;23.384;2022-07-10T03:20:07;94402.78;;;17.31;74.50
56052;BME280;41919;42.648;23.384;2022-07-10T03:22:34;94427.63;;;17.57;75.21
56052;BME280;41919;42.648;23.384;2022-07-10T03:25:00;94378.03;;;17.37;74.37
56052;BME280;41919;42.648;23.384;2022-07-10T03:27:25;94438.97;;;17.85;73.22
56052;BME280;41919;42.648;23.384;2022-07-10T03:29:51;94434.78;;;17.89;74.18
56052;BME280;41919;42.648;23.384;2022-07-10T03:32:16;94433.88;;;18.05;73.30
56052;BME280;41919;42.648;23.384;2022-07-10T03:34:42;94424.03;;;18.00;72.77
56052;BME280;41919;42.648;23.384;2022-07-10T03:37:07;94433.72;;;18.22;72.76
56052;BME280;41919;42.648;23.384;2022-07-10T03:39:33;94423.22;;;18.32;72.19
56052;BME280;41919;42.648;23.384;2022-07-10T03:41:59;94397.78;;;18.31;71.29
56052;BME280;41919;42.648;23.384;2022-07-10T03:44:24;94419.16;;;18.67;70.53
56052;BME280;41919;42.648;23.384;2022-07-10T03:46:50;94357.41;;;18.41;69.54
56052;BME280;41919;42.648;23.384;2022-07-10T03:49:15;94366.81;;;18.79;68.36
56052;BME280;41919;42.648;23.384;2022-07-10T03:51:41;94346.41;;;18.70;67.80
56052;BME280;41919;42.648;23.384;2022-07-10T03:54:06;94370.72;;;18.67;68.90
56052;BME280;41919;42.648;23.384;2022-07-10T03:56:32;94400.75;;;18.88;68.65
56052;BME280;41919;42.648;23.384;2022-07-10T03:59:16;94389.09;;;18.89;68.81
56052;BME280;41919;42.648;23.384;2022-07-10T04:01:41;94416.97;;;19.07;68.44
56052;BME280;41919;42.648;23.384;2022-07-10T04:04:07;94415.69;;;19.25;68.38
56052;BME280;41919;42.648;23.384;2022-07-10T04:06:32;94354.97;;;18.97;68.37
56052;BME280;41919;42.648;23.384;2022-07-10T04:08:57;94409.41;;;19.62;66.43
56052;BME280;41919;42.648;23.384;2022-07-10T04:11:23;94356.94;;;19.43;66.39
56052;BME280;41919;42.648;23.384;2022-07-10T04:13:48;94378.19;;;19.74;64.98
56052;BME280;41919;42.648;23.384;2022-07-10T04:16:14;94404.66;;;20.15;63.93
56052;BME280;41919;42.648;23.384;2022-07-10T04:18:39;94344.75;;;19.93;63.31
56052;BME280;41919;42.648;23.384;2022-07-10T04:21:05;94411.53;;;20.47;62.90
56052;BME280;41919;42.648;23.384;2022-07-10T04:23:34;94373.81;;;20.55;61.23
56052;BME280;41919;42.648;23.384;2022-07-10T04:26:01;94355.75;;;20.57;61.24
56052;BME280;41919;42.648;23.384;2022-07-10T04:28:27;94390.16;;;20.93;60.86
56052;BME280;41919;42.648;23.384;2022-07-10T04:30:52;94342.94;;;20.85;60.12
56052;BME280;41919;42.648;23.384;2022-07-10T04:33:18;94396.09;;;21.29;59.87
56052;BME280;41919;42.648;23.384;2022-07-10T04:35:43;94358.72;;;21.15;58.93
56052;BME280;41919;42.648;23.384;2022-07-10T04:38:08;94338.81;;;21.52;58.10
56052;BME280;41919;42.648;23.384;2022-07-10T04:40:34;94383.19;;;22.26;56.66
56052;BME280;41919;42.648;23.384;2022-07-10T04:42:59;94360.47;;;22.34;55.49
56052;BME280;41919;42.648;23.384;2022-07-10T04:45:25;94398.56;;;23.06;54.43
56052;BME280;41919;42.648;23.384;2022-07-10T04:47:51;94389.94;;;23.34;52.86
56052;BME280;41919;42.648;23.384;2022-07-10T04:50:17;94384.44;;;23.30;52.92
56052;BME280;41919;42.648;23.384;2022-07-10T04:52:42;94393.84;;;23.41;52.48
56052;BME280;41919;42.648;23.384;2022-07-10T04:55:08;94380.94;;;23.67;52.12
56052;BME280;41919;42.648;23.384;2022-07-10T04:57:33;94390.88;;;24.00;49.76
56052;BME280;41919;42.648;23.384;2022-07-10T04:59:59;94353.19;;;23.87;49.39
56052;BME280;41919;42.648;23.384;2022-07-10T05:02:25;94345.75;;;24.17;48.64
56052;BME280;41919;42.648;23.384;2022-07-10T05:04:50;94390.25;;;24.55;48.56
56052;BME280;41919;42.648;23.384;2022-07-10T05:07:15;94394.31;;;24.80;48.06
56052;BME280;41919;42.648;23.384;2022-07-10T05:09:41;94387.34;;;25.20;46.61
56052;BME280;41919;42.648;23.384;2022-07-10T05:12:07;94355.47;;;25.24;44.91
56052;BME280;41919;42.648;23.384;2022-07-10T05:14:32;94370.22;;;25.58;45.18
56052;BME280;41919;42.648;23.384;2022-07-10T05:16:58;94361.06;;;25.73;44.00
56052;BME280;41919;42.648;23.384;2022-07-10T05:19:23;94393.63;;;26.11;43.48
56052;BME280;41919;42.648;23.384;2022-07-10T05:21:49;94373.97;;;25.93;44.25
56052;BME280;41919;42.648;23.384;2022-07-10T05:24:14;94377.47;;;26.25;42.59
56052;BME280;41919;42.648;23.384;2022-07-10T05:26:40;94389.84;;;26.12;43.18
56052;BME280;41919;42.648;23.384;2022-07-10T05:29:05;94380.38;;;26.06;43.72
56052;BME280;41919;42.648;23.384;2022-07-10T05:31:31;94373.88;;;25.85;43.88
56052;BME280;41919;42.648;23.384;2022-07-10T05:33:56;94342.25;;;25.87;43.13
56052;BME280;41919;42.648;23.384;2022-07-10T05:36:22;94388.56;;;26.10;43.64
56052;BME280;41919;42.648;23.384;2022-07-10T05:38:47;94350.28;;;26.09;42.54
56052;BME280;41919;42.648;23.384;2022-07-10T05:41:13;94382.03;;;26.56;42.62
56052;BME280;41919;42.648;23.384;2022-07-10T05:43:38;94367.38;;;26.93;41.48
56052;BME280;41919;42.648;23.384;2022-07-10T05:46:04;94380.69;;;27.16;41.25
56052;BME280;41919;42.648;23.384;2022-07-10T05:48:30;94341.44;;;27.37;40.18
56052;BME280;41919;42.648;23.384;2022-07-10T05:50:56;94350.59;;;27.36;40.02
56052;BME280;41919;42.648;23.384;2022-07-10T05:53:21;94365.75;;;27.85;39.21
56052;BME280;41919;42.648;23.384;2022-07-10T05:55:47;94381.81;;;28.37;38.38
56052;BME280;41919;42.648;23.384;2022-07-10T05:58:16;94387.56;;;28.74;37.21
56052;BME280;41919;42.648;23.384;2022-07-10T06:00:42;94383.31;;;28.73;37.79
56052;BME280;41919;42.648;23.384;2022-07-10T06:03:11;94340.47;;;27.86;38.34
56052;BME280;41919;42.648;23.384;2022-07-10T06:05:37;94391.94;;;28.40;38.18
56052;BME280;41919;42.648;23.384;2022-07-10T06:08:04;94347.13;;;28.62;37.04
56052;BME280;41919;42.648;23.384;2022-07-10T06:10:29;94364.41;;;28.52;37.41
56052;BME280;41919;42.648;23.384;2022-07-10T06:12:55;94360.31;;;28.37;37.89
56052;BME280;41919;42.648;23.384;2022-07-10T06:15:20;94391.69;;;28.71;36.81
56052;BME280;41919;42.648;23.384;2022-07-10T06:17:46;94341.97;;;28.30;36.53
56052;BME280;41919;42.648;23.384;2022-07-10T06:20:11;94381.53;;;29.07;36.10
56052;BME280;41919;42.648;23.384;2022-07-10T06:22:37;94335.69;;;28.73;36.56
56052;BME280;41919;42.648;23.384;2022-07-10T06:25:05;94363.50;;;29.37;34.71
56052;BME280;41919;42.648;23.384;2022-07-10T06:27:31;94332.38;;;29.27;35.45
56052;BME280;41919;42.648;23.384;2022-07-10T06:29:56;94383.34;;;29.96;33.48
56052;BME280;41919;42.648;23.384;2022-07-10T06:32:22;94325.69;;;29.76;33.85
56052;BME280;41919;42.648;23.384;2022-07-10T06:34:49;94297.38;;;29.69;32.61
56052;BME280;41919;42.648;23.384;2022-07-10T06:37:15;94365.94;;;29.93;33.33
56052;BME280;41919;42.648;23.384;2022-07-10T06:39:40;94336.22;;;30.02;33.13
56052;BME280;41919;42.648;23.384;2022-07-10T06:42:06;94335.41;;;29.26;34.40
56052;BME280;41919;42.648;23.384;2022-07-10T06:44:31;94376.84;;;29.97;33.94
56052;BME280;41919;42.648;23.384;2022-07-10T06:46:57;94337.06;;;30.15;33.31
56052;BME280;41919;42.648;23.384;2022-07-10T06:49:42;94362.75;;;30.45;33.53
56052;BME280;41919;42.648;23.384;2022-07-10T06:52:08;94335.94;;;29.82;33.33
56052;BME280;41919;42.648;23.384;2022-07-10T06:54:34;94321.00;;;29.85;34.43
56052;BME280;41919;42.648;23.384;2022-07-10T06:56:59;94377.38;;;30.81;32.99
56052;BME280;41919;42.648;23.384;2022-07-10T06:59:25;94359.81;;;30.38;32.99
56052;BME280;41919;42.648;23.384;2022-07-10T07:01:50;94363.91;;;29.90;34.47
56052;BME280;41919;42.648;23.384;2022-07-10T07:04:16;94362.75;;;29.79;33.64
56052;BME280;41919;42.648;23.384;2022-07-10T07:06:41;94332.38;;;29.48;33.68
56052;BME280;41919;42.648;23.384;2022-07-10T07:09:07;94341.44;;;29.23;33.97
56052;BME280;41919;42.648;23.384;2022-07-10T07:11:32;94328.88;;;29.06;34.74
56052;BME280;41919;42.648;23.384;2022-07-10T07:13:58;94365.75;;;29.56;34.77
56052;BME280;41919;42.648;23.384;2022-07-10T07:16:23;94359.41;;;30.27;32.71
56052;BME280;41919;42.648;23.384;2022-07-10T07:19:03;94332.25;;;29.87;33.37
56052;BME280;41919;42.648;23.384;2022-07-10T07:21:30;94339.88;;;30.30;32.73
56052;BME280;41919;42.648;23.384;2022-07-10T07:24:14;94370.50;;;30.26;33.01
56052;BME280;41919;42.648;23.384;2022-07-10T07:26:39;94337.22;;;30.43;31.76
56052;BME280;41919;42.648;23.384;2022-07-10T07:29:05;94370.50;;;30.72;32.27
56052;BME280;41919;42.648;23.384;2022-07-10T07:31:30;94375.50;;;30.82;32.28
56052;BME280;41919;42.648;23.384;2022-07-10T07:33:57;94351.09;;;30.78;31.57
56052;BME280;41919;42.648;23.384;2022-07-10T07:36:22;94372.22;;;30.76;32.05
56052;BME280;41919;42.648;23.384;2022-07-10T07:38:48;94324.75;;;30.38;31.52
56052;BME280;41919;42.648;23.384;2022-07-10T07:41:13;94373.75;;;30.53;32.04
56052;BME280;41919;42.648;23.384;2022-07-10T07:43:38;94371.25;;;30.02;33.56
56052;BME280;41919;42.648;23.384;2022-07-10T07:46:04;94355.94;;;30.27;33.49
56052;BME280;41919;42.648;23.384;2022-07-10T07:48:29;94362.69;;;30.91;31.99
56052;BME280;41919;42.648;23.384;2022-07-10T07:50:55;94366.81;;;31.38;31.58
56052;BME280;41919;42.648;23.384;2022-07-10T07:53:20;94363.38;;;31.65;30.76
56052;BME280;41919;42.648;23.384;2022-07-10T07:55:46;94366.47;;;31.39;31.49
56052;BME280;41919;42.648;23.384;2022-07-10T07:58:11;94320.72;;;30.57;33.47
56052;BME280;41919;42.648;23.384;2022-07-10T08:00:36;94360.97;;;30.62;33.15
56052;BME280;41919;42.648;23.384;2022-07-10T08:03:03;94287.31;;;30.24;32.37
56052;BME280;41919;42.648;23.384;2022-07-10T08:05:28;94357.00;;;30.35;32.42
56052;BME280;41919;42.648;23.384;2022-07-10T08:07:56;94354.44;;;30.51;32.64
56052;BME280;41919;42.648;23.384;2022-07-10T08:10:23;94352.09;;;30.28;33.28
56052;BME280;41919;42.648;23.384;2022-07-10T08:12:49;94352.78;;;30.71;32.42
56052;BME280;41919;42.648;23.384;2022-07-10T08:15:16;94354.88;;;30.40;33.46
56052;BME280;41919;42.648;23.384;2022-07-10T08:17:43;94350.81;;;30.34;32.38
56052;BME280;41919;42.648;23.384;2022-07-10T08:20:11;94343.97;;;30.37;32.76
56052;BME280;41919;42.648;23.384;2022-07-10T08:22:37;94307.00;;;30.37;31.41
56052;BME280;41919;42.648;23.384;2022-07-10T08:25:03;94346.56;;;29.58;33.68
56052;BME280;41919;42.648;23.384;2022-07-10T08:27:28;94354.41;;;28.61;35.63
56052;BME280;41919;42.648;23.384;2022-07-10T08:29:54;94353.78;;;27.91;36.04
56052;BME280;41919;42.648;23.384;2022-07-10T08:32:19;94324.56;;;27.46;36.79
56052;BME280;41919;42.648;23.384;2022-07-10T08:34:45;94355.66;;;27.99;36.50
56052;BME280;41919;42.648;23.384;2022-07-10T08:37:10;94321.41;;;28.43;34.67
56052;BME280;41919;42.648;23.384;2022-07-10T08:39:35;94358.34;;;28.64;33.97
56052;BME280;41919;42.648;23.384;2022-07-10T08:42:02;94315.16;;;28.22;34.42
56052;BME280;41919;42.648;23.384;2022-07-10T08:44:29;94366.69;;;27.80;36.00
56052;BME280;41919;42.648;23.384;2022-07-10T08:46:56;94366.38;;;27.82;36.72
56052;BME280;41919;42.648;23.384;2022-07-10T08:49:27;94365.59;;;27.81;36.61
56052;BME280;41919;42.648;23.384;2022-07-10T08:54:42;94361.44;;;28.27;34.78
56052;BME280;41919;42.648;23.384;2022-07-10T08:57:10;94331.94;;;28.01;34.55
56052;BME280;41919;42.648;23.384;2022-07-10T08:59:35;94356.44;;;28.17;34.76
56052;BME280;41919;42.648;23.384;2022-07-10T09:02:01;94353.78;;;28.47;34.09
56052;BME280;41919;42.648;23.384;2022-07-10T09:04:27;94285.09;;;27.64;35.85
56052;BME280;41919;42.648;23.384;2022-07-10T09:06:54;94342.03;;;28.13;35.86
56052;BME280;41919;42.648;23.384;2022-07-10T09:09:20;94357.72;;;27.93;35.54
56052;BME280;41919;42.648;23.384;2022-07-10T09:11:46;94301.06;;;27.25;35.66
56052;BME280;41919;42.648;23.384;2022-07-10T09:14:15;94346.50;;;27.65;35.70
56052;BME280;41919;42.648;23.384;2022-07-10T09:16:43;94320.41;;;28.01;35.40
56052;BME280;41919;42.648;23.384;2022-07-10T09:19:28;94344.59;;;27.74;35.23
56052;BME280;41919;42.648;23.384;2022-07-10T09:22:04;94352.66;;;27.83;36.20
56052;BME280;41919;42.648;23.384;2022-07-10T09:24:47;94342.44;;;28.41;35.45
56052;BME280;41919;42.648;23.384;2022-07-10T09:27:14;94316.31;;;28.50;34.25
56052;BME280;41919;42.648;23.384;2022-07-10T09:29:50;94295.28;;;28.44;34.96
56052;BME280;41919;42.648;23.384;2022-07-10T09:32:20;94303.06;;;27.81;35.48
56052;BME280;41919;42.648;23.384;2022-07-10T09:34:47;94339.94;;;28.27;35.44
56052;BME280;41919;42.648;23.384;2022-07-10T09:39:58;94201.28;;;27.06;35.15
56052;BME280;41919;42.648;23.384;2022-07-10T09:42:28;94326.25;;;28.11;34.74
56052;BME280;41919;42.648;23.384;2022-07-10T09:47:38;94315.72;;;28.74;33.91
56052;BME280;41919;42.648;23.384;2022-07-10T09:50:04;94275.03;;;28.55;33.05
56052;BME280;41919;42.648;23.384;2022-07-10T09:52:43;94280.53;;;28.20;34.46
56052;BME280;41919;42.648;23.384;2022-07-10T09:55:08;94293.16;;;28.28;33.98
56052;BME280;41919;42.648;23.384;2022-07-10T09:57:34;94327.75;;;28.30;34.50
56052;BME280;41919;42.648;23.384;2022-07-10T10:00:00;94323.63;;;28.41;34.74
56052;BME280;41919;42.648;23.384;2022-07-10T10:02:26;94325.72;;;28.27;35.54
56052;BME280;41919;42.648;23.384;2022-07-10T10:04:51;94318.69;;;28.43;34.69
56052;BME280;41919;42.648;23.384;2022-07-10T10:07:18;94311.41;;;28.61;33.20
56052;BME280;41919;42.648;23.384;2022-07-10T10:09:52;94322.94;;;28.62;32.92
56052;BME280;41919;42.648;23.384;2022-07-10T10:12:31;94324.22;;;28.56;33.44
56052;BME280;41919;42.648;23.384;2022-07-10T10:14:59;94296.28;;;28.39;34.18
56052;BME280;41919;42.648;23.384;2022-07-10T10:17:27;94305.72;;;28.45;34.89
56052;BME280;41919;42.648;23.384;2022-07-10T10:19:54;94316.16;;;28.56;34.38
56052;BME280;41919;42.648;23.384;2022-07-10T10:22:43;94310.78;;;28.47;35.27
56052;BME280;41919;42.648;23.384;2022-07-10T10:25:10;94269.97;;;28.15;36.50
56052;BME280;41919;42.648;23.384;2022-07-10T10:27:37;94308.78;;;28.35;35.36
56052;BME280;41919;42.648;23.384;2022-07-10T10:30:03;94301.88;;;28.16;34.23
56052;BME280;41919;42.648;23.384;2022-07-10T10:32:28;94299.72;;;28.01;35.24
56052;BME280;41919;42.648;23.384;2022-07-10T10:34:54;94296.78;;;27.50;35.88
56052;BME280;41919;42.648;23.384;2022-07-10T10:37:38;94293.44;;;27.80;35.64
56052;BME280;41919;42.648;23.384;2022-07-10T10:40:08;94290.56;;;28.02;34.41
56052;BME280;41919;42.648;23.384;2022-07-10T10:42:42;94297.50;;;27.86;34.65
56052;BME280;41919;42.648;23.384;2022-07-10T10:45:34;94306.53;;;27.81;36.29
56052;BME280;41919;42.648;23.384;2022-07-10T10:48:10;94306.72;;;27.50;36.44
56052;BME280;41919;42.648;23.384;2022-07-10T10:50:48;94292.81;;;27.48;36.64
56052;BME280;41919;42.648;23.384;2022-07-10T10:53:24;94245.13;;;26.92;36.81
56052;BME280;41919;42.648;23.384;2022-07-10T11:01:27;94294.56;;;27.17;36.83
56052;BME280;41919;42.648;23.384;2022-07-10T11:12:09;94262.19;;;27.05;37.56
56052;BME280;41919;42.648;23.384;2022-07-10T11:14:37;94287.13;;;27.14;37.59
56052;BME280;41919;42.648;23.384;2022-07-10T11:17:05;94281.78;;;27.23;36.85
56052;BME280;41919;42.648;23.384;2022-07-10T11:19:32;94291.09;;;27.43;37.44
56052;BME280;41919;42.648;23.384;2022-07-10T11:27:28;94215.31;;;26.76;36.64
56052;BME280;41919;42.648;23.384;2022-07-10T11:29:59;94281.75;;;27.06;37.11
56052;BME280;41919;42.648;23.384;2022-07-10T11:32:24;94275.81;;;27.35;36.48
56052;BME280;41919;42.648;23.384;2022-07-10T11:34:50;94279.72;;;27.20;35.75
56052;BME280;41919;42.648;23.384;2022-07-10T11:37:15;94261.56;;;27.34;35.43
56052;BME280;41919;42.648;23.384;2022-07-10T11:39:41;94272.97;;;27.31;36.44
56052;BME280;41919;42.648;23.384;2022-07-10T11:42:07;94227.31;;;27.05;36.66
56052;BME280;41919;42.648;23.384;2022-07-10T11:44:33;94240.72;;;27.05;37.07
56052;BME280;41919;42.648;23.384;2022-07-10T11:46:58;94294.75;;;27.38;35.58
56052;BME280;41919;42.648;23.384;2022-07-10T11:49:25;94233.63;;;26.92;34.98
56052;BME280;41919;42.648;23.384;2022-07-10T11:51:50;94252.56;;;26.95;34.42
56052;BME280;41919;42.648;23.384;2022-07-10T11:54:17;94234.75;;;26.91;33.84
56052;BME280;41919;42.648;23.384;2022-07-10T11:56:52;94286.34;;;27.14;34.00
56052;BME280;41919;42.648;23.384;2022-07-10T11:59:27;94283.16;;;27.03;34.82
56052;BME280;41919;42.648;23.384;2022-07-10T12:01:54;94276.53;;;27.09;36.62
56052;BME280;41919;42.648;23.384;2022-07-10T12:04:22;94249.25;;;26.98;37.01
56052;BME280;41919;42.648;23.384;2022-07-10T12:06:50;94224.34;;;26.89;36.26
56052;BME280;41919;42.648;23.384;2022-07-10T12:09:18;94262.03;;;27.19;36.02
56052;BME280;41919;42.648;23.384;2022-07-10T12:12:00;94252.56;;;27.13;35.01
56052;BME280;41919;42.648;23.384;2022-07-10T12:14:26;94232.69;;;26.88;34.82
56052;BME280;41919;42.648;23.384;2022-07-10T12:16:53;94290.16;;;27.30;36.07
56052;BME280;41919;42.648;23.384;2022-07-10T12:19:22;94280.22;;;27.40;35.34
56052;BME280;41919;42.648;23.384;2022-07-10T12:21:49;94289.03;;;27.49;37.55
56052;BME280;41919;42.648;23.384;2022-07-10T12:24:18;94287.63;;;27.60;37.17
56052;BME280;41919;42.648;23.384;2022-07-10T12:26:46;94247.06;;;27.27;36.84
56052;BME280;41919;42.648;23.384;2022-07-10T12:31:43;94283.16;;;27.03;36.13
56052;BME280;41919;42.648;23.384;2022-07-10T12:34:11;94245.78;;;26.89;35.99
56052;BME280;41919;42.648;23.384;2022-07-10T12:36:51;94243.72;;;26.86;35.66
56052;BME280;41919;42.648;23.384;2022-07-10T12:39:19;94282.06;;;26.95;36.57
56052;BME280;41919;42.648;23.384;2022-07-10T12:42:01;94277.00;;;26.85;37.10
56052;BME280;41919;42.648;23.384;2022-07-10T12:44:44;94250.72;;;26.47;36.23
56052;BME280;41919;42.648;23.384;2022-07-10T12:47:14;94277.00;;;26.36;36.05
56052;BME280;41919;42.648;23.384;2022-07-10T12:52:35;94279.03;;;26.31;35.51
56052;BME280;41919;42.648;23.384;2022-07-10T13:00:23;94280.19;;;26.47;35.73
56052;BME280;41919;42.648;23.384;2022-07-10T13:02:50;94223.88;;;26.30;35.94
56052;BME280;41919;42.648;23.384;2022-07-10T13:05:29;94233.00;;;26.29;35.72
56052;BME280;41919;42.648;23.384;2022-07-10T13:10:57;94268.91;;;26.59;33.74
56052;BME280;41919;42.648;23.384;2022-07-10T13:13:25;94280.56;;;26.63;33.57
56052;BME280;41919;42.648;23.384;2022-07-10T13:15:52;94252.91;;;26.45;33.15
56052;BME280;41919;42.648;23.384;2022-07-10T13:18:24;94269.16;;;26.49;32.85
56052;BME280;41919;42.648;23.384;2022-07-10T13:20:51;94221.88;;;26.04;32.63
56052;BME280;41919;42.648;23.384;2022-07-10T13:23:17;94268.81;;;26.41;32.14
56052;BME280;41919;42.648;23.384;2022-07-10T13:25:46;94276.56;;;26.43;32.22
56052;BME280;41919;42.648;23.384;2022-07-10T13:28:11;94230.50;;;26.24;32.19
56052;BME280;41919;42.648;23.384;2022-07-10T13:30:37;94236.16;;;26.31;32.93